sensor_id;sensor_type;location;lat;lon;timestamp;pressure;altitude;pressure_sealevel;temperature;humidity
15646;BME280;7922;43.622;1.476;2023-08-20T00:02:12;100258.06;;;26.25;68.25
15646;BME280;7922;43.622;1.476;2023-08-20T00:04:39;100239.97;;;26.07;68.24
15646;BME280;7922;43.622;1.476;2023-08-20T00:07:07;100129.16;;;25.41;68.36
15646;BME280;7922;43.622;1.476;2023-08-20T00:09:32;100206.72;;;25.87;69.05
15646;BME280;7922;43.622;1.476;2023-08-20T00:11:58;100236.72;;;26.04;69.43
15646;BME280;7922;43.622;1.476;2023-08-20T00:14:53;100272.44;;;26.17;69.87
15646;BME280;7922;43.622;1.476;2023-08-20T00:17:18;100252.31;;;26.02;70.26
15646;BME280;7922;43.622;1.476;2023-08-20T00:19:44;100263.88;;;26.04;70.32
15646;BME280;7922;43.622;1.476;2023-08-20T00:22:09;100232.22;;;25.77;70.47
15646;BME280;7922;43.622;1.476;2023-08-20T00:24:35;100260.16;;;25.87;70.66
15646;BME280;7922;43.622;1.476;2023-08-20T00:27:00;100220.72;;;25.57;71.26
15646;BME280;7922;43.622;1.476;2023-08-20T00:29:26;100210.47;;;25.51;71.77
15646;BME280;7922;43.622;1.476;2023-08-20T00:31:51;100214.19;;;25.50;71.67
15646;BME280;7922;43.622;1.476;2023-08-20T00:34:16;100266.66;;;25.76;72.32
15646;BME280;7922;43.622;1.476;2023-08-20T00:36:42;100275.38;;;25.80;71.92
15646;BME280;7922;43.622;1.476;2023-08-20T00:39:07;100225.81;;;25.42;72.50
15646;BME280;7922;43.622;1.476;2023-08-20T00:41:32;100236.19;;;25.47;72.67
15646;BME280;7922;43.622;1.476;2023-08-20T00:43:57;100216.91;;;25.32;72.83
15646;BME280;7922;43.622;1.476;2023-08-20T00:46:23;100231.25;;;25.42;72.47
15646;BME280;7922;43.622;1.476;2023-08-20T00:48:48;100229.69;;;25.39;72.89
15646;BME280;7922;43.622;1.476;2023-08-20T00:51:14;100220.59;;;25.31;73.06
15646;BME280;7922;43.622;1.476;2023-08-20T00:53:39;100178.16;;;24.94;73.67
15646;BME280;7922;43.622;1.476;2023-08-20T00:56:05;100181.59;;;24.96;73.76
15646;BME280;7922;43.622;1.476;2023-08-20T00:58:30;100226.88;;;25.13;73.70
15646;BME280;7922;43.622;1.476;2023-08-20T01:00:55;100195.63;;;24.91;74.34
15646;BME280;7922;43.622;1.476;2023-08-20T01:03:21;100159.53;;;24.63;74.35
15646;BME280;7922;43.622;1.476;2023-08-20T01:05:51;100106.81;;;24.30;74.06
15646;BME280;7922;43.622;1.476;2023-08-20T01:09:01;100158.69;;;24.63;74.48
15646;BME280;7922;43.622;1.476;2023-08-20T01:11:25;100230.38;;;24.96;74.71
15646;BME280;7922;43.622;1.476;2023-08-20T01:13:54;100148.38;;;24.48;75.14
15646;BME280;7922;43.622;1.476;2023-08-20T01:16:20;100265.25;;;25.09;76.03
15646;BME280;7922;43.622;1.476;2023-08-20T01:18:45;100220.22;;;24.80;75.54
15646;BME280;7922;43.622;1.476;2023-08-20T01:26:50;100148.28;;;24.31;76.79
15646;BME280;7922;43.622;1.476;2023-08-20T01:29:19;100209.19;;;24.54;77.05
15646;BME280;7922;43.622;1.476;2023-08-20T01:31:45;100199.72;;;24.40;78.16
15646;BME280;7922;43.622;1.476;2023-08-20T01:34:11;100211.41;;;24.41;78.40
15646;BME280;7922;43.622;1.476;2023-08-20T01:36:38;100200.28;;;24.34;78.15
15646;BME280;7922;43.622;1.476;2023-08-20T01:39:03;100181.66;;;24.21;78.25
15646;BME280;7922;43.622;1.476;2023-08-20T01:41:28;100245.81;;;24.58;78.27
15646;BME280;7922;43.622;1.476;2023-08-20T01:43:54;100162.50;;;23.95;78.17
15646;BME280;7922;43.622;1.476;2023-08-20T01:46:19;100231.34;;;24.40;77.70
15646;BME280;7922;43.622;1.476;2023-08-20T01:48:44;100291.53;;;24.71;77.61
15646;BME280;7922;43.622;1.476;2023-08-20T01:51:09;100221.94;;;24.34;77.41
15646;BME280;7922;43.622;1.476;2023-08-20T01:53:35;100251.88;;;24.42;77.21
15646;BME280;7922;43.622;1.476;2023-08-20T01:56:00;100230.25;;;24.23;77.75
15646;BME280;7922;43.622;1.476;2023-08-20T01:58:25;100305.28;;;24.60;77.86
15646;BME280;7922;43.622;1.476;2023-08-20T02:00:51;100230.97;;;24.15;77.81
15646;BME280;7922;43.622;1.476;2023-08-20T02:03:16;100257.16;;;24.24;78.08
15646;BME280;7922;43.622;1.476;2023-08-20T02:05:42;100221.47;;;24.01;78.34
15646;BME280;7922;43.622;1.476;2023-08-20T02:08:07;100244.09;;;24.10;77.82
15646;BME280;7922;43.622;1.476;2023-08-20T02:10:32;100258.19;;;24.14;78.31
15646;BME280;7922;43.622;1.476;2023-08-20T02:12:57;100233.25;;;24.10;77.94
15646;BME280;7922;43.622;1.476;2023-08-20T02:15:23;100251.47;;;24.18;78.10
15646;BME280;7922;43.622;1.476;2023-08-20T02:17:48;100247.41;;;24.04;78.89
15646;BME280;7922;43.622;1.476;2023-08-20T02:20:14;100309.75;;;24.41;78.12
15646;BME280;7922;43.622;1.476;2023-08-20T02:22:39;100301.75;;;24.40;78.68
15646;BME280;7922;43.622;1.476;2023-08-20T02:25:04;100228.59;;;23.93;78.79
15646;BME280;7922;43.622;1.476;2023-08-20T02:27:29;100221.63;;;23.90;78.73
15646;BME280;7922;43.622;1.476;2023-08-20T02:29:55;100231.16;;;23.94;78.69
15646;BME280;7922;43.622;1.476;2023-08-20T02:32:20;100296.47;;;24.38;78.65
15646;BME280;7922;43.622;1.476;2023-08-20T02:34:50;100242.38;;;23.99;78.82
15646;BME280;7922;43.622;1.476;2023-08-20T02:37:15;100258.34;;;24.02;78.93
15646;BME280;7922;43.622;1.476;2023-08-20T02:39:40;100261.78;;;24.05;79.16
15646;BME280;7922;43.622;1.476;2023-08-20T02:42:06;100209.13;;;23.70;79.72
15646;BME280;7922;43.622;1.476;2023-08-20T02:44:31;100273.84;;;24.10;79.53
15646;BME280;7922;43.622;1.476;2023-08-20T02:46:56;100293.25;;;24.15;79.53
15646;BME280;7922;43.622;1.476;2023-08-20T02:49:22;100309.16;;;24.28;79.47
15646;BME280;7922;43.622;1.476;2023-08-20T02:51:47;100246.28;;;23.87;79.99
15646;BME280;7922;43.622;1.476;2023-08-20T02:54:12;100242.72;;;23.87;80.34
15646;BME280;7922;43.622;1.476;2023-08-20T02:56:38;100306.06;;;24.13;80.63
15646;BME280;7922;43.622;1.476;2023-08-20T02:59:03;100249.13;;;23.76;80.54
15646;BME280;7922;43.622;1.476;2023-08-20T03:01:29;100244.72;;;23.75;80.63
15646;BME280;7922;43.622;1.476;2023-08-20T03:03:54;100260.97;;;23.75;80.88
15646;BME280;7922;43.622;1.476;2023-08-20T03:06:19;100304.34;;;24.12;80.82
15646;BME280;7922;43.622;1.476;2023-08-20T03:08:45;100244.16;;;23.71;81.29
15646;BME280;7922;43.622;1.476;2023-08-20T03:11:10;100243.13;;;23.63;81.48
15646;BME280;7922;43.622;1.476;2023-08-20T03:13:36;100268.63;;;23.80;80.93
15646;BME280;7922;43.622;1.476;2023-08-20T03:16:01;100237.56;;;23.64;81.41
15646;BME280;7922;43.622;1.476;2023-08-20T03:18:26;100278.75;;;23.87;81.70
15646;BME280;7922;43.622;1.476;2023-08-20T03:20:53;100242.72;;;23.67;81.76
15646;BME280;7922;43.622;1.476;2023-08-20T03:23:19;100310.63;;;24.03;81.20
15646;BME280;7922;43.622;1.476;2023-08-20T03:25:44;100267.06;;;23.77;81.21
15646;BME280;7922;43.622;1.476;2023-08-20T03:28:09;100259.38;;;23.72;81.44
15646;BME280;7922;43.622;1.476;2023-08-20T03:30:36;100199.44;;;23.28;82.12
15646;BME280;7922;43.622;1.476;2023-08-20T03:33:01;100288.13;;;23.83;81.92
15646;BME280;7922;43.622;1.476;2023-08-20T03:35:27;100314.47;;;23.91;82.19
15646;BME280;7922;43.622;1.476;2023-08-20T03:37:52;100308.22;;;23.90;81.88
15646;BME280;7922;43.622;1.476;2023-08-20T03:40:17;100229.72;;;23.42;82.12
15646;BME280;7922;43.622;1.476;2023-08-20T03:42:42;100228.88;;;23.41;82.30
15646;BME280;7922;43.622;1.476;2023-08-20T03:45:08;100184.75;;;23.12;82.32
15646;BME280;7922;43.622;1.476;2023-08-20T03:47:33;100244.69;;;23.46;82.65
15646;BME280;7922;43.622;1.476;2023-08-20T03:49:58;100207.94;;;23.24;83.12
15646;BME280;7922;43.622;1.476;2023-08-20T03:52:24;100303.38;;;23.74;83.21
15646;BME280;7922;43.622;1.476;2023-08-20T03:54:49;100243.09;;;23.34;83.12
15646;BME280;7922;43.622;1.476;2023-08-20T03:57:14;100286.53;;;23.61;83.42
15646;BME280;7922;43.622;1.476;2023-08-20T03:59:39;100294.22;;;23.66;84.12
15646;BME280;7922;43.622;1.476;2023-08-20T04:02:05;100259.34;;;23.43;83.73
15646;BME280;7922;43.622;1.476;2023-08-20T04:04:30;100270.84;;;23.45;83.66
15646;BME280;7922;43.622;1.476;2023-08-20T04:06:55;100224.00;;;23.16;84.20
15646;BME280;7922;43.622;1.476;2023-08-20T04:09:21;100306.91;;;23.65;84.19
15646;BME280;7922;43.622;1.476;2023-08-20T04:11:46;100179.72;;;22.88;84.70
15646;BME280;7922;43.622;1.476;2023-08-20T04:14:11;100303.59;;;23.52;84.62
15646;BME280;7922;43.622;1.476;2023-08-20T04:16:36;100247.63;;;23.23;84.71
15646;BME280;7922;43.622;1.476;2023-08-20T04:19:02;100272.72;;;23.35;84.89
15646;BME280;7922;43.622;1.476;2023-08-20T04:21:27;100202.31;;;22.87;84.17
15646;BME280;7922;43.622;1.476;2023-08-20T04:23:52;100296.47;;;23.41;85.10
15646;BME280;7922;43.622;1.476;2023-08-20T04:26:18;100258.44;;;23.14;85.44
15646;BME280;7922;43.622;1.476;2023-08-20T04:28:43;100302.31;;;23.37;84.89
15646;BME280;7922;43.622;1.476;2023-08-20T04:31:08;100281.66;;;23.26;84.98
15646;BME280;7922;43.622;1.476;2023-08-20T04:33:34;100282.66;;;23.25;85.31
15646;BME280;7922;43.622;1.476;2023-08-20T04:35:59;100186.19;;;22.66;85.39
15646;BME280;7922;43.622;1.476;2023-08-20T04:38:24;100307.56;;;23.28;85.51
15646;BME280;7922;43.622;1.476;2023-08-20T04:40:49;100301.41;;;23.26;85.61
15646;BME280;7922;43.622;1.476;2023-08-20T04:43:15;100284.63;;;23.13;85.78
15646;BME280;7922;43.622;1.476;2023-08-20T04:45:41;100318.50;;;23.27;86.04
15646;BME280;7922;43.622;1.476;2023-08-20T04:48:07;100264.44;;;22.87;86.36
15646;BME280;7922;43.622;1.476;2023-08-20T04:50:32;100282.94;;;22.91;86.69
15646;BME280;7922;43.622;1.476;2023-08-20T04:52:58;100369.75;;;23.38;86.52
15646;BME280;7922;43.622;1.476;2023-08-20T04:55:23;100328.56;;;23.15;86.66
15646;BME280;7922;43.622;1.476;2023-08-20T04:57:48;100336.72;;;23.25;86.87
15646;BME280;7922;43.622;1.476;2023-08-20T05:00:15;100329.03;;;23.20;86.94
15646;BME280;7922;43.622;1.476;2023-08-20T05:02:40;100287.25;;;22.94;86.81
15646;BME280;7922;43.622;1.476;2023-08-20T05:05:06;100252.56;;;22.68;87.11
15646;BME280;7922;43.622;1.476;2023-08-20T05:07:31;100264.22;;;22.69;86.84
15646;BME280;7922;43.622;1.476;2023-08-20T05:09:56;100365.88;;;23.31;87.09
15646;BME280;7922;43.622;1.476;2023-08-20T05:12:22;100241.72;;;22.58;86.69
15646;BME280;7922;43.622;1.476;2023-08-20T05:14:47;100358.66;;;23.32;86.71
15646;BME280;7922;43.622;1.476;2023-08-20T05:17:12;100297.59;;;22.89;87.58
15646;BME280;7922;43.622;1.476;2023-08-20T05:19:37;100270.38;;;22.71;87.47
15646;BME280;7922;43.622;1.476;2023-08-20T05:22:03;100252.31;;;22.71;87.25
15646;BME280;7922;43.622;1.476;2023-08-20T05:24:28;100375.03;;;23.40;86.22
15646;BME280;7922;43.622;1.476;2023-08-20T05:27:09;100391.72;;;23.54;85.92
15646;BME280;7922;43.622;1.476;2023-08-20T05:29:35;100242.09;;;22.75;85.51
15646;BME280;7922;43.622;1.476;2023-08-20T05:32:00;100343.00;;;23.35;85.14
15646;BME280;7922;43.622;1.476;2023-08-20T05:34:25;100350.16;;;23.46;85.14
15646;BME280;7922;43.622;1.476;2023-08-20T05:36:51;100318.69;;;23.35;84.90
15646;BME280;7922;43.622;1.476;2023-08-20T05:39:16;100348.28;;;23.56;84.73
15646;BME280;7922;43.622;1.476;2023-08-20T05:41:41;100350.59;;;23.61;84.33
15646;BME280;7922;43.622;1.476;2023-08-20T05:44:07;100360.75;;;23.78;84.07
15646;BME280;7922;43.622;1.476;2023-08-20T05:46:32;100368.59;;;23.81;83.57
15646;BME280;7922;43.622;1.476;2023-08-20T05:48:57;100351.09;;;23.75;83.68
15646;BME280;7922;43.622;1.476;2023-08-20T05:51:22;100377.41;;;23.93;83.70
15646;BME280;7922;43.622;1.476;2023-08-20T05:53:48;100337.13;;;23.80;83.25
15646;BME280;7922;43.622;1.476;2023-08-20T05:56:13;100394.53;;;24.22;82.82
15646;BME280;7922;43.622;1.476;2023-08-20T05:58:38;100298.97;;;23.83;81.86
15646;BME280;7922;43.622;1.476;2023-08-20T06:01:04;100361.91;;;24.24;81.69
15646;BME280;7922;43.622;1.476;2023-08-20T06:03:29;100312.06;;;23.97;81.16
15646;BME280;7922;43.622;1.476;2023-08-20T06:05:57;100352.47;;;24.38;80.62
15646;BME280;7922;43.622;1.476;2023-08-20T06:08:22;100384.56;;;24.52;81.17
15646;BME280;7922;43.622;1.476;2023-08-20T06:10:48;100360.19;;;24.42;80.35
15646;BME280;7922;43.622;1.476;2023-08-20T06:13:13;100376.69;;;24.68;79.83
15646;BME280;7922;43.622;1.476;2023-08-20T06:15:38;100374.34;;;24.83;78.99
15646;BME280;7922;43.622;1.476;2023-08-20T06:18:04;100342.47;;;24.67;78.31
15646;BME280;7922;43.622;1.476;2023-08-20T06:20:29;100385.53;;;25.08;77.37
15646;BME280;7922;43.622;1.476;2023-08-20T06:22:54;100364.16;;;25.05;76.95
15646;BME280;7922;43.622;1.476;2023-08-20T06:25:20;100368.59;;;25.06;76.33
15646;BME280;7922;43.622;1.476;2023-08-20T06:27:45;100270.47;;;24.65;75.61
15646;BME280;7922;43.622;1.476;2023-08-20T06:30:11;100425.50;;;25.70;75.18
15646;BME280;7922;43.622;1.476;2023-08-20T06:32:36;100353.19;;;25.34;74.88
15646;BME280;7922;43.622;1.476;2023-08-20T06:35:01;100407.44;;;25.89;74.04
15646;BME280;7922;43.622;1.476;2023-08-20T06:37:27;100392.31;;;25.86;73.97
15646;BME280;7922;43.622;1.476;2023-08-20T06:39:52;100341.00;;;25.65;72.90
15646;BME280;7922;43.622;1.476;2023-08-20T06:42:17;100352.16;;;25.62;72.08
15646;BME280;7922;43.622;1.476;2023-08-20T06:44:42;100322.31;;;25.62;71.95
15646;BME280;7922;43.622;1.476;2023-08-20T06:47:08;100336.28;;;25.67;71.42
15646;BME280;7922;43.622;1.476;2023-08-20T06:49:33;100407.91;;;26.20;70.51
15646;BME280;7922;43.622;1.476;2023-08-20T06:51:58;100382.25;;;25.97;70.10
15646;BME280;7922;43.622;1.476;2023-08-20T06:54:24;100331.91;;;25.84;70.44
15646;BME280;7922;43.622;1.476;2023-08-20T06:56:49;100374.41;;;25.93;70.45
15646;BME280;7922;43.622;1.476;2023-08-20T06:59:14;100370.13;;;25.91;69.83
15646;BME280;7922;43.622;1.476;2023-08-20T07:01:40;100393.19;;;26.23;69.45
15646;BME280;7922;43.622;1.476;2023-08-20T07:04:05;100397.34;;;26.17;68.91
15646;BME280;7922;43.622;1.476;2023-08-20T07:06:31;100439.19;;;26.42;69.51
15646;BME280;7922;43.622;1.476;2023-08-20T07:08:56;100422.97;;;26.50;68.91
15646;BME280;7922;43.622;1.476;2023-08-20T07:11:21;100341.53;;;25.97;68.71
15646;BME280;7922;43.622;1.476;2023-08-20T07:13:46;100419.47;;;26.40;69.01
15646;BME280;7922;43.622;1.476;2023-08-20T07:16:12;100392.22;;;26.32;68.88
15646;BME280;7922;43.622;1.476;2023-08-20T07:18:37;100431.53;;;26.55;68.47
15646;BME280;7922;43.622;1.476;2023-08-20T07:21:02;100372.53;;;26.30;68.56
15646;BME280;7922;43.622;1.476;2023-08-20T07:23:28;100433.06;;;27.02;67.26
15646;BME280;7922;43.622;1.476;2023-08-20T07:26:07;100345.44;;;26.38;67.44
15646;BME280;7922;43.622;1.476;2023-08-20T07:28:33;100330.16;;;26.37;67.48
15646;BME280;7922;43.622;1.476;2023-08-20T07:30:59;100370.31;;;26.69;66.60
15646;BME280;7922;43.622;1.476;2023-08-20T07:33:24;100438.59;;;27.18;66.49
15646;BME280;7922;43.622;1.476;2023-08-20T07:35:49;100330.94;;;26.73;66.26
15646;BME280;7922;43.622;1.476;2023-08-20T07:38:15;100351.72;;;26.91;65.48
15646;BME280;7922;43.622;1.476;2023-08-20T07:40:40;100433.84;;;27.54;64.92
15646;BME280;7922;43.622;1.476;2023-08-20T07:43:05;100355.56;;;27.06;64.83
15646;BME280;7922;43.622;1.476;2023-08-20T07:45:30;100416.69;;;27.62;64.55
15646;BME280;7922;43.622;1.476;2023-08-20T07:47:56;100414.69;;;27.72;64.07
15646;BME280;7922;43.622;1.476;2023-08-20T07:50:21;100417.41;;;27.72;63.36
15646;BME280;7922;43.622;1.476;2023-08-20T07:52:46;100314.38;;;26.93;64.03
15646;BME280;7922;43.622;1.476;2023-08-20T07:55:12;100287.13;;;26.76;63.48
15646;BME280;7922;43.622;1.476;2023-08-20T07:57:37;100406.50;;;27.64;62.97
15646;BME280;7922;43.622;1.476;2023-08-20T08:00:02;100245.75;;;26.64;62.75
15646;BME280;7922;43.622;1.476;2023-08-20T08:02:28;100419.75;;;27.59;62.71
15646;BME280;7922;43.622;1.476;2023-08-20T08:04:53;100458.38;;;27.97;62.94
15646;BME280;7922;43.622;1.476;2023-08-20T08:07:18;100433.16;;;27.95;61.81
15646;BME280;7922;43.622;1.476;2023-08-20T08:09:44;100348.56;;;27.38;62.09
15646;BME280;7922;43.622;1.476;2023-08-20T08:12:09;100462.53;;;28.34;61.34
15646;BME280;7922;43.622;1.476;2023-08-20T08:14:34;100459.16;;;28.64;60.70
15646;BME280;7922;43.622;1.476;2023-08-20T08:17:00;100355.72;;;28.05;59.61
15646;BME280;7922;43.622;1.476;2023-08-20T08:19:25;100419.28;;;28.63;60.13
15646;BME280;7922;43.622;1.476;2023-08-20T08:21:50;100431.72;;;28.98;59.34
15646;BME280;7922;43.622;1.476;2023-08-20T08:24:15;100385.69;;;28.71;58.20
15646;BME280;7922;43.622;1.476;2023-08-20T08:26:41;100431.84;;;28.97;58.08
15646;BME280;7922;43.622;1.476;2023-08-20T08:29:07;100419.59;;;29.09;58.21
15646;BME280;7922;43.622;1.476;2023-08-20T08:31:33;100417.34;;;29.21;56.64
15646;BME280;7922;43.622;1.476;2023-08-20T08:33:58;100399.09;;;28.97;57.29
15646;BME280;7922;43.622;1.476;2023-08-20T08:36:24;100447.09;;;29.47;57.29
15646;BME280;7922;43.622;1.476;2023-08-20T08:38:49;100393.31;;;29.16;56.53
15646;BME280;7922;43.622;1.476;2023-08-20T08:41:21;100443.44;;;29.23;57.14
15646;BME280;7922;43.622;1.476;2023-08-20T08:43:47;100392.16;;;29.02;57.04
15646;BME280;7922;43.622;1.476;2023-08-20T08:46:13;100459.69;;;29.64;56.22
15646;BME280;7922;43.622;1.476;2023-08-20T08:48:41;100406.22;;;29.31;55.30
15646;BME280;7922;43.622;1.476;2023-08-20T08:51:07;100372.31;;;29.17;54.75
15646;BME280;7922;43.622;1.476;2023-08-20T08:53:33;100430.56;;;29.40;55.42
15646;BME280;7922;43.622;1.476;2023-08-20T08:55:59;100386.22;;;29.38;54.88
15646;BME280;7922;43.622;1.476;2023-08-20T08:58:25;100369.75;;;29.55;54.77
15646;BME280;7922;43.622;1.476;2023-08-20T09:00:51;100405.72;;;29.74;53.46
15646;BME280;7922;43.622;1.476;2023-08-20T09:03:16;100399.47;;;29.89;53.10
15646;BME280;7922;43.622;1.476;2023-08-20T09:05:55;100374.34;;;29.93;53.36
15646;BME280;7922;43.622;1.476;2023-08-20T09:08:30;100383.53;;;29.69;52.36
15646;BME280;7922;43.622;1.476;2023-08-20T09:10:57;100471.72;;;30.17;51.91
15646;BME280;7922;43.622;1.476;2023-08-20T09:13:34;100438.22;;;30.15;52.25
15646;BME280;7922;43.622;1.476;2023-08-20T09:15:59;100415.25;;;30.02;51.82
15646;BME280;7922;43.622;1.476;2023-08-20T09:18:27;100427.63;;;30.20;51.73
15646;BME280;7922;43.622;1.476;2023-08-20T09:20:53;100472.22;;;30.67;52.37
15646;BME280;7922;43.622;1.476;2023-08-20T09:23:18;100361.22;;;30.12;51.49
15646;BME280;7922;43.622;1.476;2023-08-20T09:25:44;100373.00;;;30.12;51.19
15646;BME280;7922;43.622;1.476;2023-08-20T09:28:09;100456.28;;;30.70;50.53
15646;BME280;7922;43.622;1.476;2023-08-20T09:30:35;100429.00;;;30.62;50.67
15646;BME280;7922;43.622;1.476;2023-08-20T09:33:12;100347.47;;;30.43;50.39
15646;BME280;7922;43.622;1.476;2023-08-20T09:35:37;100389.75;;;30.55;50.37
15646;BME280;7922;43.622;1.476;2023-08-20T09:38:03;100415.34;;;30.62;50.42
15646;BME280;7922;43.622;1.476;2023-08-20T09:40:29;100402.69;;;30.61;50.06
15646;BME280;7922;43.622;1.476;2023-08-20T09:42:56;100380.53;;;30.71;50.43
15646;BME280;7922;43.622;1.476;2023-08-20T09:45:27;100378.63;;;31.09;50.00
15646;BME280;7922;43.622;1.476;2023-08-20T09:47:55;100398.84;;;31.38;48.43
15646;BME280;7922;43.622;1.476;2023-08-20T09:50:21;100416.00;;;31.61;48.83
15646;BME280;7922;43.622;1.476;2023-08-20T09:52:58;100382.31;;;31.31;48.40
15646;BME280;7922;43.622;1.476;2023-08-20T09:55:30;100365.69;;;31.18;48.79
15646;BME280;7922;43.622;1.476;2023-08-20T09:57:58;100429.50;;;31.63;48.29
15646;BME280;7922;43.622;1.476;2023-08-20T10:00:23;100418.56;;;31.63;47.94
15646;BME280;7922;43.622;1.476;2023-08-20T10:02:49;100339.72;;;31.29;48.34
15646;BME280;7922;43.622;1.476;2023-08-20T10:05:15;100417.25;;;31.80;47.27
15646;BME280;7922;43.622;1.476;2023-08-20T10:07:42;100342.53;;;31.50;48.06
15646;BME280;7922;43.622;1.476;2023-08-20T10:10:09;100341.19;;;31.61;47.14
15646;BME280;7922;43.622;1.476;2023-08-20T10:12:35;100377.47;;;31.84;46.56
15646;BME280;7922;43.622;1.476;2023-08-20T10:15:02;100371.13;;;31.99;46.95
15646;BME280;7922;43.622;1.476;2023-08-20T10:17:32;100399.44;;;32.06;46.39
15646;BME280;7922;43.622;1.476;2023-08-20T10:19:58;100306.34;;;31.76;46.29
15646;BME280;7922;43.622;1.476;2023-08-20T10:22:44;100441.38;;;32.43;45.71
15646;BME280;7922;43.622;1.476;2023-08-20T10:25:12;100360.38;;;31.97;44.65
15646;BME280;7922;43.622;1.476;2023-08-20T10:27:39;100398.06;;;32.17;44.52
15646;BME280;7922;43.622;1.476;2023-08-20T10:30:17;100263.00;;;31.07;45.45
15646;BME280;7922;43.622;1.476;2023-08-20T10:32:50;100356.56;;;31.98;44.88
15646;BME280;7922;43.622;1.476;2023-08-20T10:35:17;100420.31;;;32.43;45.09
15646;BME280;7922;43.622;1.476;2023-08-20T10:40:53;100421.63;;;32.75;44.46
15646;BME280;7922;43.622;1.476;2023-08-20T10:43:36;100378.16;;;32.72;44.30
15646;BME280;7922;43.622;1.476;2023-08-20T10:51:16;100207.03;;;31.89;43.43
15646;BME280;7922;43.622;1.476;2023-08-20T10:54:05;100377.06;;;32.95;43.25
15646;BME280;7922;43.622;1.476;2023-08-20T11:01:40;100331.16;;;32.54;43.40
15646;BME280;7922;43.622;1.476;2023-08-20T11:04:12;100368.06;;;32.86;43.07
15646;BME280;7922;43.622;1.476;2023-08-20T11:06:38;100393.34;;;33.03;42.88
15646;BME280;7922;43.622;1.476;2023-08-20T11:09:04;100352.16;;;32.68;42.14
15646;BME280;7922;43.622;1.476;2023-08-20T11:11:29;100379.63;;;32.75;41.73
15646;BME280;7922;43.622;1.476;2023-08-20T11:13:55;100409.09;;;33.16;42.05
15646;BME280;7922;43.622;1.476;2023-08-20T11:16:20;100362.28;;;32.96;41.57
15646;BME280;7922;43.622;1.476;2023-08-20T11:18:45;100359.63;;;33.09;42.21
15646;BME280;7922;43.622;1.476;2023-08-20T11:21:12;100388.66;;;33.31;41.17
15646;BME280;7922;43.622;1.476;2023-08-20T11:23:38;100403.91;;;33.41;41.13
15646;BME280;7922;43.622;1.476;2023-08-20T11:26:03;100367.53;;;33.32;41.13
15646;BME280;7922;43.622;1.476;2023-08-20T11:28:29;100345.09;;;33.22;41.47
15646;BME280;7922;43.622;1.476;2023-08-20T11:30:55;100335.13;;;33.14;40.73
15646;BME280;7922;43.622;1.476;2023-08-20T11:33:21;100357.34;;;33.26;40.75
15646;BME280;7922;43.622;1.476;2023-08-20T11:35:46;100380.59;;;33.65;40.59
15646;BME280;7922;43.622;1.476;2023-08-20T11:38:12;100291.59;;;33.11;40.23
15646;BME280;7922;43.622;1.476;2023-08-20T11:40:39;100289.91;;;33.10;40.44
15646;BME280;7922;43.622;1.476;2023-08-20T11:43:05;100352.25;;;33.58;40.42
15646;BME280;7922;43.622;1.476;2023-08-20T11:45:30;100372.41;;;33.78;40.42
15646;BME280;7922;43.622;1.476;2023-08-20T11:47:56;100319.69;;;33.61;39.73
15646;BME280;7922;43.622;1.476;2023-08-20T11:50:21;100387.06;;;34.05;39.39
15646;BME280;7922;43.622;1.476;2023-08-20T11:52:47;100332.22;;;33.90;39.66
15646;BME280;7922;43.622;1.476;2023-08-20T11:55:12;100297.75;;;33.68;39.15
15646;BME280;7922;43.622;1.476;2023-08-20T11:57:38;100300.91;;;33.71;39.20
15646;BME280;7922;43.622;1.476;2023-08-20T12:00:04;100340.56;;;34.10;39.16
15646;BME280;7922;43.622;1.476;2023-08-20T12:02:30;100355.13;;;34.24;38.97
15646;BME280;7922;43.622;1.476;2023-08-20T12:04:56;100276.09;;;33.45;38.49
15646;BME280;7922;43.622;1.476;2023-08-20T12:07:25;100370.19;;;34.21;38.93
15646;BME280;7922;43.622;1.476;2023-08-20T12:09:51;100316.66;;;34.11;38.74
15646;BME280;7922;43.622;1.476;2023-08-20T12:12:19;100292.94;;;34.23;38.67
15646;BME280;7922;43.622;1.476;2023-08-20T12:14:44;100350.47;;;34.78;38.33
15646;BME280;7922;43.622;1.476;2023-08-20T12:17:10;100337.13;;;34.81;37.42
15646;BME280;7922;43.622;1.476;2023-08-20T12:19:35;100335.44;;;34.80;37.94
15646;BME280;7922;43.622;1.476;2023-08-20T12:22:00;100339.22;;;34.86;37.42
15646;BME280;7922;43.622;1.476;2023-08-20T12:24:26;100272.84;;;34.56;36.96
15646;BME280;7922;43.622;1.476;2023-08-20T12:26:51;100296.09;;;34.73;37.56
15646;BME280;7922;43.622;1.476;2023-08-20T12:29:16;100335.84;;;35.04;36.89
15646;BME280;7922;43.622;1.476;2023-08-20T12:31:41;100361.63;;;35.23;35.64
15646;BME280;7922;43.622;1.476;2023-08-20T12:34:09;100230.91;;;34.47;36.19
15646;BME280;7922;43.622;1.476;2023-08-20T12:36:35;100253.53;;;34.69;36.90
15646;BME280;7922;43.622;1.476;2023-08-20T12:39:00;100288.00;;;34.85;36.86
15646;BME280;7922;43.622;1.476;2023-08-20T12:41:25;100300.53;;;34.74;36.07
15646;BME280;7922;43.622;1.476;2023-08-20T12:43:51;100326.34;;;34.86;36.46
15646;BME280;7922;43.622;1.476;2023-08-20T12:46:17;100276.81;;;34.73;35.72
15646;BME280;7922;43.622;1.476;2023-08-20T12:48:42;100341.25;;;35.30;36.59
15646;BME280;7922;43.622;1.476;2023-08-20T12:51:08;100190.66;;;34.66;36.25
15646;BME280;7922;43.622;1.476;2023-08-20T12:53:33;100319.81;;;35.39;35.45
15646;BME280;7922;43.622;1.476;2023-08-20T12:55:58;100306.69;;;35.34;35.96
15646;BME280;7922;43.622;1.476;2023-08-20T12:58:24;100331.00;;;35.51;34.46
15646;BME280;7922;43.622;1.476;2023-08-20T13:00:49;100271.66;;;35.03;35.96
15646;BME280;7922;43.622;1.476;2023-08-20T13:03:15;100322.06;;;35.04;36.16
15646;BME280;7922;43.622;1.476;2023-08-20T13:05:40;100304.69;;;35.03;36.02
15646;BME280;7922;43.622;1.476;2023-08-20T13:08:06;100324.09;;;35.28;35.88
15646;BME280;7922;43.622;1.476;2023-08-20T13:10:32;100268.28;;;34.94;35.99
15646;BME280;7922;43.622;1.476;2023-08-20T13:13:00;100238.47;;;34.78;35.50
15646;BME280;7922;43.622;1.476;2023-08-20T13:15:27;100294.88;;;35.20;36.08